sensor_id;sensor_type;location;lat;lon;timestamp;P1;durP1;ratioP1;P2;durP2;ratioP2
48487;SDS011;34289;48.572;13.378;2024-02-16T00:00:39;14.32;;;7.03;;
48487;SDS011;34289;48.572;13.378;2024-02-16T00:03:09;32.88;;;7.70;;
48487;SDS011;34289;48.572;13.378;2024-02-16T00:05:35;34.13;;;6.93;;
48487;SDS011;34289;48.572;13.378;2024-02-16T00:08:01;21.45;;;7.13;;
48487;SDS011;34289;48.572;13.378;2024-02-16T00:10:28;34.65;;;6.85;;
48487;SDS011;34289;48.572;13.378;2024-02-16T00:12:54;16.73;;;6.63;;
48487;SDS011;34289;48.572;13.378;2024-02-16T00:15:19;28.63;;;7.60;;
48487;SDS011;34289;48.572;13.378;2024-02-16T00:17:45;15.23;;;6.00;;
48487;SDS011;34289;48.572;13.378;2024-02-16T00:20:11;13.65;;;5.97;;
48487;SDS011;34289;48.572;13.378;2024-02-16T00:22:38;26.00;;;6.10;;
48487;SDS011;34289;48.572;13.378;2024-02-16T00:25:03;9.82;;;6.00;;
48487;SDS011;34289;48.572;13.378;2024-02-16T00:27:29;13.27;;;6.30;;
48487;SDS011;34289;48.572;13.378;2024-02-16T00:29:55;13.57;;;5.82;;
48487;SDS011;34289;48.572;13.378;2024-02-16T00:32:22;16.90;;;6.63;;
48487;SDS011;34289;48.572;13.378;2024-02-16T00:34:49;10.05;;;7.25;;
48487;SDS011;34289;48.572;13.378;2024-02-16T00:37:18;9.75;;;6.53;;
48487;SDS011;34289;48.572;13.378;2024-02-16T00:39:44;8.00;;;6.32;;
48487;SDS011;34289;48.572;13.378;2024-02-16T00:42:10;13.05;;;6.28;;
48487;SDS011;34289;48.572;13.378;2024-02-16T00:44:36;15.60;;;6.80;;
48487;SDS011;34289;48.572;13.378;2024-02-16T00:47:02;6.20;;;5.63;;
48487;SDS011;34289;48.572;13.378;2024-02-16T00:49:30;9.73;;;5.68;;
48487;SDS011;34289;48.572;13.378;2024-02-16T00:51:57;7.93;;;6.10;;
48487;SDS011;34289;48.572;13.378;2024-02-16T00:54:23;6.55;;;5.85;;
48487;SDS011;34289;48.572;13.378;2024-02-16T00:56:48;7.45;;;5.93;;
48487;SDS011;34289;48.572;13.378;2024-02-16T00:59:14;8.40;;;6.30;;
48487;SDS011;34289;48.572;13.378;2024-02-16T01:01:40;6.43;;;5.85;;
48487;SDS011;34289;48.572;13.378;2024-02-16T01:04:06;12.25;;;5.72;;
48487;SDS011;34289;48.572;13.378;2024-02-16T01:06:33;7.00;;;6.30;;
48487;SDS011;34289;48.572;13.378;2024-02-16T01:08:58;10.00;;;6.05;;
48487;SDS011;34289;48.572;13.378;2024-02-16T01:11:24;9.65;;;6.55;;
48487;SDS011;34289;48.572;13.378;2024-02-16T01:13:50;14.43;;;6.97;;
48487;SDS011;34289;48.572;13.378;2024-02-16T01:16:17;10.30;;;5.60;;
48487;SDS011;34289;48.572;13.378;2024-02-16T01:18:42;31.88;;;7.22;;
48487;SDS011;34289;48.572;13.378;2024-02-16T01:21:09;19.42;;;6.68;;
48487;SDS011;34289;48.572;13.378;2024-02-16T01:23:35;10.05;;;6.22;;
48487;SDS011;34289;48.572;13.378;2024-02-16T01:26:01;16.73;;;7.13;;
48487;SDS011;34289;48.572;13.378;2024-02-16T01:28:27;18.13;;;7.05;;
48487;SDS011;34289;48.572;13.378;2024-02-16T01:30:52;8.82;;;5.95;;
48487;SDS011;34289;48.572;13.378;2024-02-16T01:33:21;9.73;;;6.47;;
48487;SDS011;34289;48.572;13.378;2024-02-16T01:35:47;7.45;;;6.63;;
48487;SDS011;34289;48.572;13.378;2024-02-16T01:38:13;21.30;;;6.43;;
48487;SDS011;34289;48.572;13.378;2024-02-16T01:40:38;9.77;;;5.70;;
48487;SDS011;34289;48.572;13.378;2024-02-16T01:43:04;19.05;;;5.97;;
48487;SDS011;34289;48.572;13.378;2024-02-16T01:45:30;12.10;;;6.38;;
48487;SDS011;34289;48.572;13.378;2024-02-16T01:47:56;7.20;;;6.50;;
48487;SDS011;34289;48.572;13.378;2024-02-16T01:50:23;9.13;;;6.78;;
48487;SDS011;34289;48.572;13.378;2024-02-16T01:52:49;8.90;;;6.07;;
48487;SDS011;34289;48.572;13.378;2024-02-16T01:55:15;7.25;;;6.25;;
48487;SDS011;34289;48.572;13.378;2024-02-16T01:57:45;9.55;;;6.00;;
48487;SDS011;34289;48.572;13.378;2024-02-16T02:00:12;6.38;;;5.78;;
48487;SDS011;34289;48.572;13.378;2024-02-16T02:02:44;7.28;;;6.25;;
48487;SDS011;34289;48.572;13.378;2024-02-16T02:05:10;12.40;;;6.32;;
48487;SDS011;34289;48.572;13.378;2024-02-16T02:07:37;11.77;;;6.18;;
48487;SDS011;34289;48.572;13.378;2024-02-16T02:10:03;8.10;;;6.63;;
48487;SDS011;34289;48.572;13.378;2024-02-16T02:12:29;7.50;;;6.65;;
48487;SDS011;34289;48.572;13.378;2024-02-16T02:14:55;7.07;;;6.38;;
48487;SDS011;34289;48.572;13.378;2024-02-16T02:17:21;6.32;;;5.70;;
48487;SDS011;34289;48.572;13.378;2024-02-16T02:19:47;11.70;;;5.88;;
48487;SDS011;34289;48.572;13.378;2024-02-16T02:22:14;12.93;;;6.65;;
48487;SDS011;34289;48.572;13.378;2024-02-16T02:24:39;11.75;;;6.47;;
48487;SDS011;34289;48.572;13.378;2024-02-16T02:27:05;10.63;;;5.65;;
48487;SDS011;34289;48.572;13.378;2024-02-16T02:29:31;13.90;;;6.60;;
48487;SDS011;34289;48.572;13.378;2024-02-16T02:31:58;13.45;;;6.32;;
48487;SDS011;34289;48.572;13.378;2024-02-16T02:34:24;14.60;;;6.25;;
48487;SDS011;34289;48.572;13.378;2024-02-16T02:36:50;15.40;;;5.75;;
48487;SDS011;34289;48.572;13.378;2024-02-16T02:39:15;15.82;;;5.35;;
48487;SDS011;34289;48.572;13.378;2024-02-16T02:41:41;11.43;;;6.68;;
48487;SDS011;34289;48.572;13.378;2024-02-16T02:44:08;21.33;;;7.40;;
48487;SDS011;34289;48.572;13.378;2024-02-16T02:46:34;9.60;;;7.03;;
48487;SDS011;34289;48.572;13.378;2024-02-16T02:49:00;12.02;;;6.50;;
48487;SDS011;34289;48.572;13.378;2024-02-16T02:51:26;9.65;;;6.72;;
48487;SDS011;34289;48.572;13.378;2024-02-16T02:53:52;15.35;;;7.22;;
48487;SDS011;34289;48.572;13.378;2024-02-16T02:56:18;12.50;;;7.03;;
48487;SDS011;34289;48.572;13.378;2024-02-16T02:58:44;11.45;;;7.43;;
48487;SDS011;34289;48.572;13.378;2024-02-16T03:01:09;15.55;;;6.95;;
48487;SDS011;34289;48.572;13.378;2024-02-16T03:03:35;17.48;;;6.68;;
48487;SDS011;34289;48.572;13.378;2024-02-16T03:06:01;7.95;;;6.57;;
48487;SDS011;34289;48.572;13.378;2024-02-16T03:08:28;16.67;;;7.28;;
48487;SDS011;34289;48.572;13.378;2024-02-16T03:10:54;10.68;;;7.50;;
48487;SDS011;34289;48.572;13.378;2024-02-16T03:13:19;9.05;;;6.82;;
48487;SDS011;34289;48.572;13.378;2024-02-16T03:15:45;23.42;;;6.85;;
48487;SDS011;34289;48.572;13.378;2024-02-16T03:18:11;16.10;;;6.63;;
48487;SDS011;34289;48.572;13.378;2024-02-16T03:20:38;14.88;;;7.50;;
48487;SDS011;34289;48.572;13.378;2024-02-16T03:23:04;17.60;;;6.53;;
48487;SDS011;34289;48.572;13.378;2024-02-16T03:25:29;18.30;;;6.78;;
48487;SDS011;34289;48.572;13.378;2024-02-16T03:27:55;13.25;;;7.07;;
48487;SDS011;34289;48.572;13.378;2024-02-16T03:30:21;12.05;;;7.35;;
48487;SDS011;34289;48.572;13.378;2024-02-16T03:32:51;17.30;;;7.80;;
48487;SDS011;34289;48.572;13.378;2024-02-16T03:35:19;15.73;;;7.33;;
48487;SDS011;34289;48.572;13.378;2024-02-16T03:37:45;11.00;;;7.43;;
48487;SDS011;34289;48.572;13.378;2024-02-16T03:40:11;20.67;;;7.45;;
48487;SDS011;34289;48.572;13.378;2024-02-16T03:42:38;29.15;;;8.15;;
48487;SDS011;34289;48.572;13.378;2024-02-16T03:45:04;29.45;;;8.05;;
48487;SDS011;34289;48.572;13.378;2024-02-16T03:47:30;39.38;;;9.40;;
48487;SDS011;34289;48.572;13.378;2024-02-16T03:49:56;30.45;;;7.93;;
48487;SDS011;34289;48.572;13.378;2024-02-16T03:52:22;24.55;;;7.55;;
48487;SDS011;34289;48.572;13.378;2024-02-16T03:54:48;49.75;;;7.95;;
48487;SDS011;34289;48.572;13.378;2024-02-16T03:57:15;30.88;;;7.20;;
48487;SDS011;34289;48.572;13.378;2024-02-16T03:59:44;25.98;;;7.72;;
48487;SDS011;34289;48.572;13.378;2024-02-16T04:02:10;26.33;;;7.30;;
48487;SDS011;34289;48.572;13.378;2024-02-16T04:04:38;8.85;;;7.25;;
48487;SDS011;34289;48.572;13.378;2024-02-16T04:07:04;13.77;;;7.88;;
48487;SDS011;34289;48.572;13.378;2024-02-16T04:09:33;21.65;;;7.32;;
48487;SDS011;34289;48.572;13.378;2024-02-16T04:12:00;31.15;;;8.05;;
48487;SDS011;34289;48.572;13.378;2024-02-16T04:14:26;17.55;;;7.63;;
48487;SDS011;34289;48.572;13.378;2024-02-16T04:16:52;24.25;;;8.38;;
48487;SDS011;34289;48.572;13.378;2024-02-16T04:19:18;15.70;;;7.45;;
48487;SDS011;34289;48.572;13.378;2024-02-16T04:21:45;30.73;;;8.23;;
48487;SDS011;34289;48.572;13.378;2024-02-16T04:24:11;17.10;;;7.68;;
48487;SDS011;34289;48.572;13.378;2024-02-16T04:26:37;17.10;;;7.93;;
48487;SDS011;34289;48.572;13.378;2024-02-16T04:29:02;19.67;;;7.45;;
48487;SDS011;34289;48.572;13.378;2024-02-16T04:31:29;17.52;;;7.70;;
48487;SDS011;34289;48.572;13.378;2024-02-16T04:33:55;27.92;;;7.50;;
48487;SDS011;34289;48.572;13.378;2024-02-16T04:36:20;16.85;;;8.07;;
48487;SDS011;34289;48.572;13.378;2024-02-16T04:38:46;19.63;;;7.75;;
48487;SDS011;34289;48.572;13.378;2024-02-16T04:41:12;15.82;;;8.05;;
48487;SDS011;34289;48.572;13.378;2024-02-16T04:43:38;24.63;;;8.27;;
48487;SDS011;34289;48.572;13.378;2024-02-16T04:46:04;12.85;;;8.27;;
48487;SDS011;34289;48.572;13.378;2024-02-16T04:48:30;16.52;;;8.23;;
48487;SDS011;34289;48.572;13.378;2024-02-16T04:50:57;12.63;;;7.22;;
48487;SDS011;34289;48.572;13.378;2024-02-16T04:53:23;9.85;;;7.95;;
48487;SDS011;34289;48.572;13.378;2024-02-16T04:55:49;12.43;;;7.88;;
48487;SDS011;34289;48.572;13.378;2024-02-16T04:58:15;15.38;;;8.20;;
48487;SDS011;34289;48.572;13.378;2024-02-16T05:00:41;12.77;;;7.90;;
48487;SDS011;34289;48.572;13.378;2024-02-16T05:03:06;19.40;;;8.02;;
48487;SDS011;34289;48.572;13.378;2024-02-16T05:05:32;16.75;;;8.02;;
48487;SDS011;34289;48.572;13.378;2024-02-16T05:07:58;22.70;;;8.80;;
48487;SDS011;34289;48.572;13.378;2024-02-16T05:10:25;29.60;;;8.07;;
48487;SDS011;34289;48.572;13.378;2024-02-16T05:12:51;25.63;;;8.23;;
48487;SDS011;34289;48.572;13.378;2024-02-16T05:15:17;31.23;;;7.70;;
48487;SDS011;34289;48.572;13.378;2024-02-16T05:17:46;13.65;;;6.95;;
48487;SDS011;34289;48.572;13.378;2024-02-16T05:20:13;18.33;;;7.65;;
48487;SDS011;34289;48.572;13.378;2024-02-16T05:22:45;22.88;;;7.95;;
48487;SDS011;34289;48.572;13.378;2024-02-16T05:25:12;28.08;;;8.50;;
48487;SDS011;34289;48.572;13.378;2024-02-16T05:27:43;36.00;;;8.32;;
48487;SDS011;34289;48.572;13.378;2024-02-16T05:30:09;30.10;;;7.65;;
48487;SDS011;34289;48.572;13.378;2024-02-16T05:32:38;42.03;;;8.15;;
48487;SDS011;34289;48.572;13.378;2024-02-16T05:35:04;28.38;;;8.05;;
48487;SDS011;34289;48.572;13.378;2024-02-16T05:37:46;28.40;;;7.50;;
48487;SDS011;34289;48.572;13.378;2024-02-16T05:40:14;25.23;;;7.75;;
48487;SDS011;34289;48.572;13.378;2024-02-16T05:42:54;27.95;;;7.95;;
48487;SDS011;34289;48.572;13.378;2024-02-16T05:45:24;30.50;;;8.05;;
48487;SDS011;34289;48.572;13.378;2024-02-16T05:47:51;21.40;;;7.78;;
48487;SDS011;34289;48.572;13.378;2024-02-16T05:50:17;13.30;;;8.02;;
48487;SDS011;34289;48.572;13.378;2024-02-16T05:52:45;20.75;;;7.68;;
48487;SDS011;34289;48.572;13.378;2024-02-16T05:55:11;16.20;;;8.80;;
48487;SDS011;34289;48.572;13.378;2024-02-16T05:57:38;22.10;;;9.15;;
48487;SDS011;34289;48.572;13.378;2024-02-16T06:00:04;17.10;;;9.10;;
48487;SDS011;34289;48.572;13.378;2024-02-16T06:02:31;13.23;;;7.80;;
48487;SDS011;34289;48.572;13.378;2024-02-16T06:04:57;20.77;;;8.30;;
48487;SDS011;34289;48.572;13.378;2024-02-16T06:07:27;19.05;;;8.55;;
48487;SDS011;34289;48.572;13.378;2024-02-16T06:09:56;15.85;;;9.05;;
48487;SDS011;34289;48.572;13.378;2024-02-16T06:12:22;22.77;;;8.35;;
48487;SDS011;34289;48.572;13.378;2024-02-16T06:14:49;16.52;;;8.52;;
48487;SDS011;34289;48.572;13.378;2024-02-16T06:17:15;20.67;;;9.75;;
48487;SDS011;34289;48.572;13.378;2024-02-16T06:19:41;13.57;;;8.38;;
48487;SDS011;34289;48.572;13.378;2024-02-16T06:22:07;20.58;;;9.32;;
48487;SDS011;34289;48.572;13.378;2024-02-16T06:24:34;18.27;;;8.88;;
48487;SDS011;34289;48.572;13.378;2024-02-16T06:27:00;14.27;;;9.90;;
48487;SDS011;34289;48.572;13.378;2024-02-16T06:29:26;13.88;;;10.23;;
48487;SDS011;34289;48.572;13.378;2024-02-16T06:31:52;17.80;;;10.35;;
48487;SDS011;34289;48.572;13.378;2024-02-16T06:34:18;22.20;;;10.60;;
48487;SDS011;34289;48.572;13.378;2024-02-16T06:36:44;36.67;;;10.18;;
48487;SDS011;34289;48.572;13.378;2024-02-16T06:39:10;52.70;;;10.93;;
48487;SDS011;34289;48.572;13.378;2024-02-16T06:41:41;33.00;;;11.15;;
48487;SDS011;34289;48.572;13.378;2024-02-16T06:44:11;26.98;;;10.48;;
48487;SDS011;34289;48.572;13.378;2024-02-16T06:46:37;22.08;;;8.75;;
48487;SDS011;34289;48.572;13.378;2024-02-16T06:49:02;35.80;;;9.15;;
48487;SDS011;34289;48.572;13.378;2024-02-16T06:51:28;32.42;;;9.38;;
48487;SDS011;34289;48.572;13.378;2024-02-16T06:53:54;28.02;;;10.10;;
48487;SDS011;34289;48.572;13.378;2024-02-16T06:56:20;22.45;;;9.88;;
48487;SDS011;34289;48.572;13.378;2024-02-16T06:58:46;25.67;;;10.02;;
48487;SDS011;34289;48.572;13.378;2024-02-16T07:01:13;27.02;;;9.40;;
48487;SDS011;34289;48.572;13.378;2024-02-16T07:03:39;27.23;;;9.23;;
48487;SDS011;34289;48.572;13.378;2024-02-16T07:06:05;33.33;;;10.07;;
48487;SDS011;34289;48.572;13.378;2024-02-16T07:08:35;31.95;;;10.60;;
48487;SDS011;34289;48.572;13.378;2024-02-16T07:11:02;33.47;;;10.70;;
48487;SDS011;34289;48.572;13.378;2024-02-16T07:13:28;19.45;;;11.63;;
48487;SDS011;34289;48.572;13.378;2024-02-16T07:15:54;26.02;;;11.57;;
48487;SDS011;34289;48.572;13.378;2024-02-16T07:18:20;19.77;;;10.70;;
48487;SDS011;34289;48.572;13.378;2024-02-16T07:20:46;21.90;;;11.15;;
48487;SDS011;34289;48.572;13.378;2024-02-16T07:23:12;23.92;;;10.68;;
48487;SDS011;34289;48.572;13.378;2024-02-16T07:25:40;16.40;;;10.48;;
48487;SDS011;34289;48.572;13.378;2024-02-16T07:28:06;14.73;;;10.52;;
48487;SDS011;34289;48.572;13.378;2024-02-16T07:30:33;28.58;;;11.93;;
48487;SDS011;34289;48.572;13.378;2024-02-16T07:32:59;38.58;;;11.15;;
48487;SDS011;34289;48.572;13.378;2024-02-16T07:35:24;22.60;;;10.38;;
48487;SDS011;34289;48.572;13.378;2024-02-16T07:37:50;16.17;;;9.32;;
48487;SDS011;34289;48.572;13.378;2024-02-16T07:40:20;11.70;;;9.07;;
48487;SDS011;34289;48.572;13.378;2024-02-16T07:42:46;12.73;;;10.13;;
48487;SDS011;34289;48.572;13.378;2024-02-16T07:45:11;11.30;;;10.05;;
48487;SDS011;34289;48.572;13.378;2024-02-16T07:47:40;10.32;;;9.25;;
48487;SDS011;34289;48.572;13.378;2024-02-16T07:50:06;10.57;;;9.48;;
48487;SDS011;34289;48.572;13.378;2024-02-16T07:52:33;9.57;;;8.68;;
48487;SDS011;34289;48.572;13.378;2024-02-16T07:54:58;9.45;;;8.48;;
48487;SDS011;34289;48.572;13.378;2024-02-16T07:57:24;9.77;;;8.98;;
48487;SDS011;34289;48.572;13.378;2024-02-16T07:59:50;9.65;;;8.68;;
48487;SDS011;34289;48.572;13.378;2024-02-16T08:02:16;9.82;;;9.02;;
48487;SDS011;34289;48.572;13.378;2024-02-16T08:04:43;9.13;;;8.32;;
48487;SDS011;34289;48.572;13.378;2024-02-16T08:07:12;12.32;;;9.00;;
48487;SDS011;34289;48.572;13.378;2024-02-16T08:09:38;9.70;;;8.73;;
48487;SDS011;34289;48.572;13.378;2024-02-16T08:12:04;9.38;;;8.57;;
48487;SDS011;34289;48.572;13.378;2024-02-16T08:14:32;9.73;;;8.93;;
48487;SDS011;34289;48.572;13.378;2024-02-16T08:16:58;8.95;;;8.35;;
48487;SDS011;34289;48.572;13.378;2024-02-16T08:19:31;8.75;;;8.00;;
48487;SDS011;34289;48.572;13.378;2024-02-16T08:22:01;8.20;;;7.55;;
48487;SDS011;34289;48.572;13.378;2024-02-16T08:24:28;9.65;;;8.60;;
48487;SDS011;34289;48.572;13.378;2024-02-16T08:26:54;9.45;;;8.75;;
48487;SDS011;34289;48.572;13.378;2024-02-16T08:29:21;9.35;;;8.45;;
48487;SDS011;34289;48.572;13.378;2024-02-16T08:31:50;10.18;;;8.98;;
48487;SDS011;34289;48.572;13.378;2024-02-16T08:34:16;10.02;;;9.13;;
48487;SDS011;34289;48.572;13.378;2024-02-16T08:36:46;10.18;;;9.27;;
48487;SDS011;34289;48.572;13.378;2024-02-16T08:39:12;10.52;;;9.73;;
48487;SDS011;34289;48.572;13.378;2024-02-16T08:41:38;9.82;;;9.02;;
48487;SDS011;34289;48.572;13.378;2024-02-16T08:44:05;9.68;;;8.88;;
48487;SDS011;34289;48.572;13.378;2024-02-16T08:46:35;9.50;;;8.73;;
48487;SDS011;34289;48.572;13.378;2024-02-16T08:49:01;8.90;;;8.20;;
48487;SDS011;34289;48.572;13.378;2024-02-16T08:51:28;8.68;;;7.97;;
48487;SDS011;34289;48.572;13.378;2024-02-16T08:53:54;9.32;;;8.57;;
48487;SDS011;34289;48.572;13.378;2024-02-16T08:56:20;10.20;;;9.13;;
48487;SDS011;34289;48.572;13.378;2024-02-16T08:58:45;8.38;;;7.78;;
48487;SDS011;34289;48.572;13.378;2024-02-16T09:01:11;9.02;;;8.32;;
48487;SDS011;34289;48.572;13.378;2024-02-16T09:03:37;9.00;;;8.30;;
48487;SDS011;34289;48.572;13.378;2024-02-16T09:06:05;8.55;;;7.85;;
48487;SDS011;34289;48.572;13.378;2024-02-16T09:08:30;9.80;;;9.00;;
48487;SDS011;34289;48.572;13.378;2024-02-16T09:10:58;9.20;;;8.50;;
48487;SDS011;34289;48.572;13.378;2024-02-16T09:13:24;9.40;;;8.57;;
48487;SDS011;34289;48.572;13.378;2024-02-16T09:15:50;10.82;;;9.93;;
48487;SDS011;34289;48.572;13.378;2024-02-16T09:18:16;11.75;;;10.75;;
48487;SDS011;34289;48.572;13.378;2024-02-16T09:20:42;11.90;;;10.68;;
48487;SDS011;34289;48.572;13.378;2024-02-16T09:23:08;11.88;;;10.70;;
48487;SDS011;34289;48.572;13.378;2024-02-16T09:25:35;11.52;;;10.63;;
48487;SDS011;34289;48.572;13.378;2024-02-16T09:28:00;13.02;;;12.00;;
48487;SDS011;34289;48.572;13.378;2024-02-16T09:30:27;13.68;;;12.43;;
48487;SDS011;34289;48.572;13.378;2024-02-16T09:32:53;12.95;;;11.88;;
48487;SDS011;34289;48.572;13.378;2024-02-16T09:35:19;14.18;;;12.98;;
48487;SDS011;34289;48.572;13.378;2024-02-16T09:37:44;14.43;;;13.07;;
48487;SDS011;34289;48.572;13.378;2024-02-16T09:40:11;15.43;;;14.13;;
48487;SDS011;34289;48.572;13.378;2024-02-16T09:42:38;16.30;;;14.60;;
48487;SDS011;34289;48.572;13.378;2024-02-16T09:45:05;16.23;;;14.82;;
48487;SDS011;34289;48.572;13.378;2024-02-16T09:47:32;16.45;;;14.95;;
48487;SDS011;34289;48.572;13.378;2024-02-16T09:50:00;16.75;;;15.15;;
48487;SDS011;34289;48.572;13.378;2024-02-16T09:52:26;17.25;;;15.68;;
48487;SDS011;34289;48.572;13.378;2024-02-16T09:54:52;20.83;;;15.90;;
48487;SDS011;34289;48.572;13.378;2024-02-16T09:57:18;17.85;;;15.98;;
48487;SDS011;34289;48.572;13.378;2024-02-16T09:59:44;16.45;;;14.85;;
48487;SDS011;34289;48.572;13.378;2024-02-16T10:02:10;17.77;;;16.15;;
48487;SDS011;34289;48.572;13.378;2024-02-16T10:04:36;17.50;;;15.73;;
48487;SDS011;34289;48.572;13.378;2024-02-16T10:07:02;16.58;;;15.07;;
48487;SDS011;34289;48.572;13.378;2024-02-16T10:09:29;16.52;;;15.13;;
48487;SDS011;34289;48.572;13.378;2024-02-16T10:11:54;15.77;;;14.23;;
48487;SDS011;34289;48.572;13.378;2024-02-16T10:14:20;15.68;;;14.38;;
48487;SDS011;34289;48.572;13.378;2024-02-16T10:16:58;16.60;;;14.80;;
48487;SDS011;34289;48.572;13.378;2024-02-16T10:19:29;16.75;;;15.18;;
48487;SDS011;34289;48.572;13.378;2024-02-16T10:24:37;19.67;;;17.75;;
48487;SDS011;34289;48.572;13.378;2024-02-16T10:27:06;19.23;;;17.33;;
48487;SDS011;34289;48.572;13.378;2024-02-16T10:29:43;20.85;;;18.85;;
48487;SDS011;34289;48.572;13.378;2024-02-16T10:32:11;21.65;;;19.45;;
48487;SDS011;34289;48.572;13.378;2024-02-16T10:34:38;22.58;;;20.38;;
48487;SDS011;34289;48.572;13.378;2024-02-16T10:37:05;21.92;;;19.73;;
48487;SDS011;34289;48.572;13.378;2024-02-16T10:39:32;23.00;;;20.65;;
48487;SDS011;34289;48.572;13.378;2024-02-16T10:41:58;23.30;;;20.65;;
48487;SDS011;34289;48.572;13.378;2024-02-16T10:44:27;23.15;;;20.95;;
48487;SDS011;34289;48.572;13.378;2024-02-16T10:46:54;23.70;;;21.30;;
48487;SDS011;34289;48.572;13.378;2024-02-16T10:49:23;23.63;;;21.33;;
48487;SDS011;34289;48.572;13.378;2024-02-16T10:51:51;23.67;;;21.30;;
48487;SDS011;34289;48.572;13.378;2024-02-16T10:54:22;22.60;;;20.25;;
48487;SDS011;34289;48.572;13.378;2024-02-16T10:56:52;21.73;;;19.45;;
48487;SDS011;34289;48.572;13.378;2024-02-16T10:59:19;24.42;;;21.27;;
48487;SDS011;34289;48.572;13.378;2024-02-16T11:01:45;23.17;;;20.70;;
48487;SDS011;34289;48.572;13.378;2024-02-16T11:04:14;23.65;;;20.90;;
48487;SDS011;34289;48.572;13.378;2024-02-16T11:06:45;24.50;;;20.92;;
48487;SDS011;34289;48.572;13.378;2024-02-16T11:11:53;25.98;;;21.33;;
48487;SDS011;34289;48.572;13.378;2024-02-16T11:14:21;27.70;;;21.98;;
48487;SDS011;34289;48.572;13.378;2024-02-16T11:16:48;27.08;;;22.23;;
48487;SDS011;34289;48.572;13.378;2024-02-16T11:19:14;32.33;;;24.17;;
48487;SDS011;34289;48.572;13.378;2024-02-16T11:21:54;25.65;;;21.77;;
48487;SDS011;34289;48.572;13.378;2024-02-16T11:24:33;27.92;;;23.65;;
48487;SDS011;34289;48.572;13.378;2024-02-16T11:27:05;26.40;;;22.60;;
48487;SDS011;34289;48.572;13.378;2024-02-16T11:29:33;29.90;;;21.20;;
48487;SDS011;34289;48.572;13.378;2024-02-16T11:32:01;24.10;;;20.08;;
48487;SDS011;34289;48.572;13.378;2024-02-16T11:34:27;21.73;;;18.85;;
48487;SDS011;34289;48.572;13.378;2024-02-16T11:36:57;22.90;;;18.75;;
48487;SDS011;34289;48.572;13.378;2024-02-16T11:39:23;22.25;;;19.48;;
48487;SDS011;34289;48.572;13.378;2024-02-16T11:44:52;20.63;;;17.95;;
48487;SDS011;34289;48.572;13.378;2024-02-16T11:47:19;19.83;;;17.70;;
48487;SDS011;34289;48.572;13.378;2024-02-16T11:49:59;17.48;;;15.68;;
48487;SDS011;34289;48.572;13.378;2024-02-16T11:52:32;19.58;;;17.33;;
48487;SDS011;34289;48.572;13.378;2024-02-16T11:54:59;18.08;;;16.17;;
48487;SDS011;34289;48.572;13.378;2024-02-16T11:57:28;19.10;;;17.08;;
48487;SDS011;34289;48.572;13.378;2024-02-16T11:59:55;18.45;;;16.65;;
48487;SDS011;34289;48.572;13.378;2024-02-16T12:02:23;19.67;;;17.67;;
48487;SDS011;34289;48.572;13.378;2024-02-16T12:04:57;18.85;;;16.95;;
48487;SDS011;34289;48.572;13.378;2024-02-16T12:07:25;20.77;;;18.17;;
48487;SDS011;34289;48.572;13.378;2024-02-16T12:09:59;16.85;;;15.15;;
48487;SDS011;34289;48.572;13.378;2024-02-16T12:12:25;17.92;;;15.70;;
48487;SDS011;34289;48.572;13.378;2024-02-16T12:14:52;18.08;;;16.27;;
48487;SDS011;34289;48.572;13.378;2024-02-16T12:17:18;16.63;;;15.02;;
48487;SDS011;34289;48.572;13.378;2024-02-16T12:19:44;18.67;;;15.40;;
48487;SDS011;34289;48.572;13.378;2024-02-16T12:22:11;17.13;;;15.45;;
48487;SDS011;34289;48.572;13.378;2024-02-16T12:24:50;16.42;;;14.93;;
48487;SDS011;34289;48.572;13.378;2024-02-16T12:27:16;15.35;;;13.85;;
48487;SDS011;34289;48.572;13.378;2024-02-16T12:29:42;16.23;;;12.93;;
48487;SDS011;34289;48.572;13.378;2024-02-16T12:32:08;15.18;;;13.77;;
48487;SDS011;34289;48.572;13.378;2024-02-16T12:34:35;14.35;;;13.05;;
48487;SDS011;34289;48.572;13.378;2024-02-16T12:37:04;14.23;;;12.88;;
48487;SDS011;34289;48.572;13.378;2024-02-16T12:39:32;13.55;;;12.35;;
48487;SDS011;34289;48.572;13.378;2024-02-16T12:41:58;14.52;;;12.00;;
48487;SDS011;34289;48.572;13.378;2024-02-16T12:44:24;15.63;;;13.75;;
48487;SDS011;34289;48.572;13.378;2024-02-16T12:46:50;14.20;;;12.88;;
48487;SDS011;34289;48.572;13.378;2024-02-16T12:49:16;14.88;;;12.93;;
48487;SDS011;34289;48.572;13.378;2024-02-16T12:51:46;13.85;;;12.60;;
48487;SDS011;34289;48.572;13.378;2024-02-16T12:54:12;12.20;;;11.13;;
48487;SDS011;34289;48.572;13.378;2024-02-16T12:56:41;11.52;;;10.50;;
48487;SDS011;34289;48.572;13.378;2024-02-16T12:59:09;12.20;;;11.10;;
48487;SDS011;34289;48.572;13.378;2024-02-16T13:01:35;13.13;;;12.02;;
48487;SDS011;34289;48.572;13.378;2024-02-16T13:04:01;13.23;;;11.90;;
48487;SDS011;34289;48.572;13.378;2024-02-16T13:06:27;12.85;;;11.65;;
48487;SDS011;34289;48.572;13.378;2024-02-16T13:08:53;12.55;;;11.18;;
48487;SDS011;34289;48.572;13.378;2024-02-16T13:11:19;13.73;;;12.43;;
48487;SDS011;34289;48.572;13.378;2024-02-16T13:13:45;12.98;;;11.77;;
48487;SDS011;34289;48.572;13.378;2024-02-16T13:16:11;13.23;;;11.90;;
48487;SDS011;34289;48.572;13.378;2024-02-16T13:18:37;13.68;;;12.30;;
48487;SDS011;34289;48.572;13.378;2024-02-16T13:21:03;13.40;;;12.05;;
48487;SDS011;34289;48.572;13.378;2024-02-16T13:23:29;14.07;;;12.63;;
48487;SDS011;34289;48.572;13.378;2024-02-16T13:25:56;16.58;;;12.85;;
48487;SDS011;34289;48.572;13.378;2024-02-16T13:28:21;14.90;;;13.48;;
48487;SDS011;34289;48.572;13.378;2024-02-16T13:30:47;15.70;;;14.05;;
48487;SDS011;34289;48.572;13.378;2024-02-16T13:33:13;14.77;;;13.50;;
48487;SDS011;34289;48.572;13.378;2024-02-16T13:35:42;16.13;;;14.45;;
48487;SDS011;34289;48.572;13.378;2024-02-16T13:38:07;14.73;;;12.65;;
48487;SDS011;34289;48.572;13.378;2024-02-16T13:40:33;15.10;;;13.60;;
48487;SDS011;34289;48.572;13.378;2024-02-16T13:43:00;14.90;;;13.52;;
48487;SDS011;34289;48.572;13.378;2024-02-16T13:45:47;14.55;;;13.23;;
48487;SDS011;34289;48.572;13.378;2024-02-16T13:48:15;15.32;;;13.90;;
48487;SDS011;34289;48.572;13.378;2024-02-16T13:50:40;13.90;;;12.68;;
48487;SDS011;34289;48.572;13.378;2024-02-16T13:53:09;14.68;;;13.27;;
48487;SDS011;34289;48.572;13.378;2024-02-16T13:55:35;14.90;;;13.55;;
48487;SDS011;34289;48.572;13.378;2024-02-16T13:58:01;14.98;;;13.32;;
48487;SDS011;34289;48.572;13.378;2024-02-16T14:00:27;16.45;;;14.82;;
48487;SDS011;34289;48.572;13.378;2024-02-16T14:02:53;16.58;;;15.05;;
48487;SDS011;34289;48.572;13.378;2024-02-16T14:05:19;15.95;;;14.52;;
48487;SDS011;34289;48.572;13.378;2024-02-16T14:07:47;17.00;;;15.38;;
48487;SDS011;34289;48.572;13.378;2024-02-16T14:10:13;16.77;;;15.18;;
48487;SDS011;34289;48.572;13.378;2024-02-16T14:12:39;16.35;;;14.95;;
48487;SDS011;34289;48.572;13.378;2024-02-16T14:15:05;16.42;;;14.93;;
48487;SDS011;34289;48.572;13.378;2024-02-16T14:17:32;16.25;;;14.65;;
48487;SDS011;34289;48.572;13.378;2024-02-16T14:19:58;16.75;;;15.15;;
48487;SDS011;34289;48.572;13.378;2024-02-16T14:22:24;15.68;;;14.25;;
48487;SDS011;34289;48.572;13.378;2024-02-16T14:24:50;16.45;;;14.85;;